Time;durP1;ratioP1;P1;durP2;ratioP2;P2;SDS_P1;SDS_P2;PMS_P1;PMS_P2;Temp;Humidity;BMP_temperature;BMP_pressure;BME280_temperature;BME280_humidity;BME280_pressure;Samples;Min_cycle;Max_cycle;Signal;HPM_P1;HPM_P2
2023/12/09 00:01:19;;;;;;;6.10;3.90;;;7.60;99.90;;;;;;4986284;28;20197;-75
2023/12/09 00:03:45;;;;;;;6.40;3.93;;;7.70;99.90;;;;;;4988899;28;20183;-75
2023/12/09 00:06:10;;;;;;;7.17;3.57;;;7.70;99.90;;;;;;4988998;28;20187;-74
2023/12/09 00:08:36;;;;;;;9.23;3.80;;;7.60;99.90;;;;;;4986732;28;20655;-74
2023/12/09 00:11:02;;;;;;;7.47;3.50;;;7.60;99.90;;;;;;4989732;28;20184;-74
2023/12/09 00:13:28;;;;;;;7.50;3.40;;;7.70;99.90;;;;;;4988877;28;20948;-74
2023/12/09 00:15:54;;;;;;;6.03;2.97;;;7.70;99.90;;;;;;4988964;28;20696;-74
2023/12/09 00:18:19;;;;;;;7.00;3.30;;;7.70;99.90;;;;;;4989407;28;20279;-74
2023/12/09 00:20:45;;;;;;;6.17;3.30;;;7.70;99.90;;;;;;4988728;28;20616;-74
2023/12/09 00:23:11;;;;;;;8.60;3.50;;;7.70;99.90;;;;;;4990189;28;20184;-74
2023/12/09 00:25:37;;;;;;;4.50;2.67;;;7.70;99.90;;;;;;4987576;28;20191;-75
2023/12/09 00:28:02;;;;;;;7.30;3.33;;;7.70;99.90;;;;;;4989202;28;20192;-75
2023/12/09 00:30:28;;;;;;;4.80;3.60;;;7.70;99.90;;;;;;4987073;28;20435;-74
2023/12/09 00:32:54;;;;;;;7.70;3.27;;;7.70;99.90;;;;;;4988649;28;20207;-74
2023/12/09 00:35:20;;;;;;;5.43;3.00;;;7.70;99.90;;;;;;4987078;28;20215;-74
2023/12/09 00:37:45;;;;;;;4.27;2.80;;;7.70;99.90;;;;;;4990048;28;20784;-74
2023/12/09 00:40:12;;;;;;;5.97;4.13;;;7.70;99.90;;;;;;4989426;28;20283;-74
2023/12/09 00:42:37;;;;;;;11.67;4.17;;;7.70;99.90;;;;;;4987616;28;20442;-74
2023/12/09 00:45:05;;;;;;;4.80;3.20;;;7.80;99.90;;;;;;4989145;28;20456;-74
2023/12/09 00:47:30;;;;;;;5.20;3.10;;;7.70;99.90;;;;;;4988631;28;20434;-74
2023/12/09 00:49:56;;;;;;;10.93;3.03;;;7.70;99.90;;;;;;4988639;28;20911;-75
2023/12/09 00:52:22;;;;;;;4.40;2.57;;;7.70;99.90;;;;;;4986052;28;20188;-73
2023/12/09 00:54:47;;;;;;;6.50;2.97;;;7.70;99.90;;;;;;4988310;28;20238;-74
2023/12/09 00:57:13;;;;;;;5.57;3.20;;;7.70;99.90;;;;;;4990822;28;20188;-74
2023/12/09 00:59:39;;;;;;;7.67;3.43;;;7.80;99.90;;;;;;4991567;28;20219;-74
2023/12/09 01:02:04;;;;;;;6.90;3.53;;;7.70;99.90;;;;;;4991269;28;21325;-73
2023/12/09 01:04:30;;;;;;;6.67;3.20;;;7.70;99.90;;;;;;4991245;28;20195;-73
2023/12/09 01:06:56;;;;;;;4.37;2.60;;;7.70;99.90;;;;;;4990273;28;20494;-73
2023/12/09 01:09:22;;;;;;;3.87;2.80;;;7.70;99.90;;;;;;4997299;28;20183;-74
2023/12/09 01:11:47;;;;;;;8.17;3.80;;;7.70;99.90;;;;;;4998441;28;20539;-74
2023/12/09 01:14:13;;;;;;;6.77;2.67;;;7.70;99.90;;;;;;4997846;28;20964;-74
2023/12/09 01:16:39;;;;;;;6.60;2.97;;;7.70;99.90;;;;;;4998049;28;20194;-74
2023/12/09 01:19:04;;;;;;;8.03;3.10;;;7.70;99.90;;;;;;4997885;28;20434;-74
2023/12/09 01:21:30;;;;;;;12.13;3.40;;;7.70;99.90;;;;;;4999087;28;20191;-73
2023/12/09 01:23:56;;;;;;;7.83;3.17;;;7.80;99.90;;;;;;4998028;28;20587;-73
2023/12/09 01:26:21;;;;;;;7.20;2.70;;;7.70;99.90;;;;;;4998217;28;20207;-74
2023/12/09 01:28:47;;;;;;;5.93;2.87;;;7.80;99.90;;;;;;4994765;28;20184;-74
2023/12/09 01:31:13;;;;;;;5.57;3.20;;;7.70;99.90;;;;;;4996933;28;20784;-73
2023/12/09 01:33:38;;;;;;;6.87;3.20;;;7.70;99.90;;;;;;4999362;28;20223;-75
2023/12/09 01:36:04;;;;;;;7.83;2.83;;;7.70;99.90;;;;;;4997122;28;20179;-74
2023/12/09 01:38:30;;;;;;;9.23;3.37;;;7.70;99.90;;;;;;4999440;28;20239;-74
2023/12/09 01:40:56;;;;;;;3.73;3.40;;;7.70;99.90;;;;;;4992287;28;20438;-74
2023/12/09 01:43:23;;;;;;;8.33;3.17;;;7.80;99.90;;;;;;4988994;28;21143;-74
2023/12/09 01:45:55;;;;;;;7.57;3.00;;;7.70;99.90;;;;;;4990672;28;20201;-73
2023/12/09 01:48:22;;;;;;;6.83;3.00;;;7.70;99.90;;;;;;4991494;28;20438;-74
2023/12/09 01:50:48;;;;;;;6.57;2.67;;;7.80;99.90;;;;;;4989717;28;20430;-74
2023/12/09 01:53:14;;;;;;;8.50;2.97;;;7.80;99.90;;;;;;4992136;28;20466;-74
2023/12/09 01:55:41;;;;;;;6.17;2.70;;;7.70;99.90;;;;;;4991020;28;20463;-74
2023/12/09 01:58:08;;;;;;;6.13;2.80;;;7.70;99.90;;;;;;4990661;28;20194;-74
2023/12/09 02:00:34;;;;;;;6.73;2.83;;;7.70;99.90;;;;;;4989815;28;20439;-73
2023/12/09 02:03:00;;;;;;;8.10;3.20;;;7.70;99.90;;;;;;4989630;28;20500;-74
2023/12/09 02:05:25;;;;;;;11.30;3.23;;;7.70;99.90;;;;;;4988992;28;20188;-74
2023/12/09 02:07:51;;;;;;;4.50;2.90;;;7.70;99.90;;;;;;4990658;28;20266;-73
2023/12/09 02:10:17;;;;;;;9.93;2.90;;;7.70;99.90;;;;;;4989426;28;20525;-74
2023/12/09 02:12:52;;;;;;;6.77;3.00;;;7.80;99.90;;;;;;4990704;28;20216;-74
2023/12/09 02:15:41;;;;;;;11.93;3.37;;;7.80;99.90;;;;;;4989051;28;20511;-74
2023/12/09 02:18:08;;;;;;;8.93;3.10;;;7.70;99.90;;;;;;4990355;28;20439;-74
2023/12/09 02:20:33;;;;;;;5.60;3.20;;;7.80;99.90;;;;;;4989341;28;20439;-74
2023/12/09 02:23:10;;;;;;;9.10;3.37;;;7.80;99.90;;;;;;4991452;28;20438;-74
2023/12/09 02:25:37;;;;;;;5.73;3.00;;;7.80;99.90;;;;;;4990337;28;20195;-74
2023/12/09 02:28:19;;;;;;;7.90;3.83;;;7.80;99.90;;;;;;4990710;28;20431;-74
2023/12/09 02:31:07;;;;;;;8.90;3.47;;;7.80;99.90;;;;;;4990664;28;20480;-74
2023/12/09 02:33:34;;;;;;;5.83;2.77;;;7.80;99.90;;;;;;4989975;28;20549;-73
2023/12/09 02:36:03;;;;;;;6.50;2.97;;;7.80;99.90;;;;;;4989566;28;20442;-74
2023/12/09 02:38:30;;;;;;;6.50;3.17;;;7.80;99.90;;;;;;4989166;28;20430;-74
2023/12/09 02:40:57;;;;;;;6.47;2.70;;;7.80;99.90;;;;;;4990847;28;20427;-73
2023/12/09 02:43:22;;;;;;;12.40;3.30;;;7.80;99.90;;;;;;4988681;28;20422;-73
2023/12/09 02:45:48;;;;;;;6.70;3.13;;;7.80;99.90;;;;;;4990417;28;20433;-74
2023/12/09 02:48:14;;;;;;;3.43;2.17;;;7.80;99.90;;;;;;4989267;28;20575;-74
2023/12/09 02:50:40;;;;;;;9.80;3.37;;;7.80;99.90;;;;;;4988409;28;20192;-74
2023/12/09 02:53:06;;;;;;;9.57;3.23;;;7.80;99.90;;;;;;4991022;28;20981;-74
2023/12/09 02:55:31;;;;;;;9.30;4.30;;;7.80;99.90;;;;;;4987539;28;20422;-73
2023/12/09 02:57:57;;;;;;;7.23;2.93;;;7.90;99.90;;;;;;4990541;28;20183;-74
2023/12/09 03:00:22;;;;;;;5.33;2.77;;;7.80;99.90;;;;;;4989512;28;20176;-74
2023/12/09 03:02:48;;;;;;;7.20;2.67;;;7.80;99.90;;;;;;4989966;28;20286;-74
2023/12/09 03:05:14;;;;;;;9.03;3.13;;;7.80;99.90;;;;;;4990065;28;20199;-75
2023/12/09 03:07:39;;;;;;;5.50;2.50;;;7.80;99.90;;;;;;4989570;28;20672;-75
2023/12/09 03:10:05;;;;;;;5.40;2.50;;;7.80;99.90;;;;;;4989227;28;20208;-74
2023/12/09 03:12:31;;;;;;;5.77;2.60;;;7.80;99.90;;;;;;4988975;28;20198;-75
2023/12/09 03:14:57;;;;;;;9.47;3.07;;;7.80;99.90;;;;;;4990446;28;20478;-73
2023/12/09 03:17:24;;;;;;;7.73;2.87;;;7.80;99.90;;;;;;4988681;28;20183;-74
2023/12/09 03:19:50;;;;;;;9.63;3.47;;;7.80;99.90;;;;;;4989270;28;20195;-75
2023/12/09 03:22:15;;;;;;;10.33;3.67;;;7.80;99.90;;;;;;4989402;28;20428;-73
2023/12/09 03:24:44;;;;;;;5.80;2.50;;;7.80;99.90;;;;;;4988012;28;20666;-73
2023/12/09 03:27:10;;;;;;;9.57;3.10;;;7.80;99.90;;;;;;4989518;28;20183;-73
2023/12/09 03:29:36;;;;;;;8.10;2.90;;;7.80;99.90;;;;;;4989059;28;20443;-74
2023/12/09 03:32:02;;;;;;;5.10;2.43;;;7.70;99.90;;;;;;4989808;28;20434;-74
2023/12/09 03:34:28;;;;;;;6.73;2.60;;;7.70;99.90;;;;;;4985914;28;20551;-73
2023/12/09 03:36:53;;;;;;;7.33;2.70;;;7.80;99.90;;;;;;4990153;28;20188;-74
2023/12/09 03:39:19;;;;;;;6.43;2.40;;;7.70;99.90;;;;;;4989098;28;20716;-73
2023/12/09 03:41:44;;;;;;;6.17;2.67;;;7.70;99.90;;;;;;4988414;28;20179;-74
2023/12/09 03:44:10;;;;;;;4.40;2.83;;;7.70;99.90;;;;;;4997017;28;20240;-73
2023/12/09 03:46:36;;;;;;;7.50;3.27;;;7.70;99.90;;;;;;5000169;28;20188;-74
2023/12/09 03:49:02;;;;;;;7.40;2.87;;;7.70;99.90;;;;;;4997842;28;20214;-74
2023/12/09 03:51:27;;;;;;;6.53;3.20;;;7.70;99.90;;;;;;4999189;28;20192;-73
2023/12/09 03:53:54;;;;;;;7.17;3.63;;;7.70;99.90;;;;;;4997393;28;21132;-73
2023/12/09 03:56:21;;;;;;;7.73;4.10;;;7.70;99.90;;;;;;4995580;28;20187;-74
2023/12/09 03:58:48;;;;;;;11.40;3.27;;;7.70;99.90;;;;;;4998257;28;20432;-73
2023/12/09 04:01:13;;;;;;;6.37;3.33;;;7.60;99.90;;;;;;4993667;28;20533;-73
2023/12/09 04:03:39;;;;;;;8.90;3.30;;;7.60;99.90;;;;;;4998901;28;20530;-74
2023/12/09 04:06:05;;;;;;;8.47;2.97;;;7.60;99.90;;;;;;4997018;28;20262;-74
2023/12/09 04:08:31;;;;;;;11.03;3.40;;;7.60;99.90;;;;;;4999424;28;20236;-74
2023/12/09 04:10:57;;;;;;;10.03;3.00;;;7.60;99.90;;;;;;4996377;28;20430;-74
2023/12/09 04:13:22;;;;;;;6.10;3.50;;;7.60;99.90;;;;;;4998310;28;20427;-74
2023/12/09 04:15:48;;;;;;;6.80;3.47;;;7.50;99.90;;;;;;4997551;28;20187;-73
2023/12/09 04:18:14;;;;;;;6.00;2.80;;;7.50;99.90;;;;;;4996478;28;20180;-73
2023/12/09 04:20:40;;;;;;;7.50;2.87;;;7.60;99.90;;;;;;5000384;28;20229;-73
2023/12/09 04:23:06;;;;;;;3.73;2.63;;;7.50;99.90;;;;;;4997220;28;20924;-74
2023/12/09 04:25:31;;;;;;;7.00;3.60;;;7.50;99.90;;;;;;5000299;28;20241;-74
2023/12/09 04:27:57;;;;;;;6.70;3.30;;;7.50;99.90;;;;;;4997916;28;20240;-74
2023/12/09 04:30:23;;;;;;;9.10;2.97;;;7.50;99.90;;;;;;4997781;28;20610;-73
2023/12/09 04:32:49;;;;;;;8.47;2.97;;;7.50;99.90;;;;;;4992025;28;20827;-74
2023/12/09 04:35:15;;;;;;;8.00;3.10;;;7.50;99.90;;;;;;4995517;28;20208;-74
2023/12/09 04:37:41;;;;;;;4.27;2.57;;;7.50;99.90;;;;;;4990148;28;20653;-74
2023/12/09 04:40:10;;;;;;;9.10;3.50;;;7.50;99.90;;;;;;4989633;28;20417;-73
2023/12/09 04:42:40;;;;;;;4.30;2.87;;;7.50;99.90;;;;;;4988799;28;20967;-75
2023/12/09 04:45:07;;;;;;;6.10;2.87;;;7.50;99.90;;;;;;4989885;28;20446;-74
2023/12/09 04:47:33;;;;;;;8.00;2.90;;;7.50;99.90;;;;;;4990975;28;20808;-74
2023/12/09 04:49:59;;;;;;;5.30;2.80;;;7.50;99.90;;;;;;4990823;28;20767;-73
2023/12/09 04:52:25;;;;;;;10.00;3.40;;;7.50;99.90;;;;;;4990442;28;20431;-73
2023/12/09 04:54:51;;;;;;;8.10;2.73;;;7.50;99.90;;;;;;4990314;28;20466;-74
2023/12/09 04:57:17;;;;;;;5.30;2.90;;;7.50;99.90;;;;;;4990284;28;20267;-74
2023/12/09 04:59:43;;;;;;;8.00;3.63;;;7.50;99.90;;;;;;4990904;28;20427;-74
2023/12/09 05:02:09;;;;;;;7.83;2.87;;;7.50;99.90;;;;;;4990034;28;20438;-74
2023/12/09 05:04:35;;;;;;;4.30;2.97;;;7.50;99.90;;;;;;4989235;28;20470;-75
2023/12/09 05:07:01;;;;;;;5.27;2.80;;;7.50;99.90;;;;;;4990653;28;20779;-74
2023/12/09 05:09:27;;;;;;;10.60;3.37;;;7.50;99.90;;;;;;4991464;28;20422;-74
2023/12/09 05:11:52;;;;;;;6.60;2.83;;;7.50;99.90;;;;;;4990746;28;20191;-74
2023/12/09 05:14:18;;;;;;;5.50;2.83;;;7.50;99.90;;;;;;4989998;28;20691;-74
2023/12/09 05:16:44;;;;;;;8.00;2.80;;;7.50;99.90;;;;;;4991023;28;20191;-75
2023/12/09 05:19:10;;;;;;;5.20;2.67;;;7.50;99.90;;;;;;4988758;28;20903;-75
2023/12/09 05:21:36;;;;;;;7.57;2.90;;;7.50;99.90;;;;;;4991256;28;20438;-74
2023/12/09 05:24:02;;;;;;;5.27;2.90;;;7.40;99.90;;;;;;4990758;28;20368;-74
2023/12/09 05:26:29;;;;;;;5.23;2.50;;;7.40;99.90;;;;;;4991411;28;20192;-74
2023/12/09 05:28:55;;;;;;;8.63;3.50;;;7.40;99.90;;;;;;4991435;28;20457;-74
2023/12/09 05:31:22;;;;;;;4.50;2.80;;;7.40;99.90;;;;;;4990132;28;20437;-75
2023/12/09 05:33:48;;;;;;;4.70;2.67;;;7.40;99.90;;;;;;4988384;28;20514;-75
2023/12/09 05:36:14;;;;;;;5.33;3.10;;;7.40;99.90;;;;;;4990738;28;20525;-74
2023/12/09 05:38:41;;;;;;;7.47;2.57;;;7.40;99.90;;;;;;4990747;28;20438;-74
2023/12/09 05:41:07;;;;;;;7.80;3.30;;;7.40;99.90;;;;;;4990139;28;20427;-74
2023/12/09 05:43:35;;;;;;;8.10;3.17;;;7.40;99.90;;;;;;4993817;28;20449;-74
2023/12/09 05:46:01;;;;;;;6.80;3.47;;;7.40;99.90;;;;;;5093052;27;20440;-75
2023/12/09 05:48:27;;;;;;;6.60;2.80;;;7.30;99.90;;;;;;4995279;28;20427;-75
2023/12/09 05:50:52;;;;;;;5.37;2.50;;;7.30;99.90;;;;;;4994544;28;20437;-74
2023/12/09 05:53:18;;;;;;;4.90;2.80;;;7.40;99.90;;;;;;4994234;28;20272;-73
2023/12/09 05:55:44;;;;;;;6.73;2.90;;;7.30;99.90;;;;;;4994878;28;20281;-75
2023/12/09 05:58:09;;;;;;;5.27;2.97;;;7.30;99.90;;;;;;4993676;28;20276;-75
2023/12/09 06:00:35;;;;;;;6.00;3.07;;;7.30;99.90;;;;;;4994310;28;20194;-74
2023/12/09 06:03:01;;;;;;;6.03;2.90;;;7.30;99.90;;;;;;4993385;28;20703;-74
2023/12/09 06:05:27;;;;;;;3.00;2.30;;;7.20;99.90;;;;;;4994014;28;20191;-75
2023/12/09 06:07:52;;;;;;;4.70;2.90;;;7.20;99.90;;;;;;4994181;28;20183;-75
2023/12/09 06:10:18;;;;;;;5.80;2.87;;;7.30;99.90;;;;;;4994292;28;20427;-74
2023/12/09 06:12:44;;;;;;;5.33;3.10;;;7.30;99.90;;;;;;4995302;28;20179;-75
2023/12/09 06:15:10;;;;;;;7.60;3.27;;;7.20;99.90;;;;;;4993513;28;20223;-75
2023/12/09 06:17:35;;;;;;;4.07;2.83;;;7.20;99.90;;;;;;4994746;28;20187;-74
2023/12/09 06:20:01;;;;;;;4.77;3.00;;;7.20;99.90;;;;;;4991215;28;20430;-75
2023/12/09 06:22:26;;;;;;;6.87;2.77;;;7.20;99.90;;;;;;4994694;28;20253;-74
2023/12/09 06:24:52;;;;;;;6.17;2.97;;;7.20;99.90;;;;;;4987764;28;20541;-75
2023/12/09 06:27:18;;;;;;;4.43;2.20;;;7.10;99.90;;;;;;4994229;28;20220;-74
2023/12/09 06:29:47;;;;;;;3.50;2.50;;;7.10;99.90;;;;;;4995425;28;20786;-74
2023/12/09 06:32:13;;;;;;;7.93;3.03;;;7.10;99.90;;;;;;4992118;28;20940;-74
2023/12/09 06:34:40;;;;;;;5.17;2.53;;;7.10;99.90;;;;;;4993016;28;20518;-75
2023/12/09 06:37:06;;;;;;;4.53;2.90;;;7.10;99.90;;;;;;4992229;28;20557;-74
2023/12/09 06:39:31;;;;;;;4.50;2.40;;;7.20;99.90;;;;;;4994451;28;20191;-74
2023/12/09 06:41:57;;;;;;;8.47;3.20;;;7.20;99.90;;;;;;4993739;28;20645;-74
2023/12/09 06:44:23;;;;;;;6.30;2.63;;;7.20;99.90;;;;;;4993854;28;20290;-75
2023/12/09 06:46:48;;;;;;;7.00;2.60;;;7.20;99.90;;;;;;4993884;28;20184;-75
2023/12/09 06:49:17;;;;;;;5.50;2.37;;;7.20;99.90;;;;;;4994250;28;20207;-74
2023/12/09 06:51:43;;;;;;;5.10;2.70;;;7.10;99.90;;;;;;4994019;28;20680;-74
2023/12/09 06:54:10;;;;;;;4.73;2.67;;;7.10;99.90;;;;;;4993538;28;20478;-74
2023/12/09 06:56:36;;;;;;;3.30;2.40;;;7.10;99.90;;;;;;4995148;28;20557;-75
2023/12/09 06:59:02;;;;;;;5.97;3.27;;;7.10;99.90;;;;;;4993134;28;20501;-75
2023/12/09 07:01:28;;;;;;;2.70;2.33;;;7.10;99.90;;;;;;4994691;28;20184;-74
2023/12/09 07:03:54;;;;;;;4.00;2.70;;;7.10;99.90;;;;;;4993880;28;20438;-74
2023/12/09 07:06:28;;;;;;;4.50;2.73;;;7.10;99.90;;;;;;4994580;28;20435;-75
2023/12/09 07:08:55;;;;;;;5.30;2.37;;;7.10;99.90;;;;;;4994116;28;20437;-74
2023/12/09 07:11:21;;;;;;;4.57;2.70;;;7.10;99.90;;;;;;4995562;28;20446;-74
2023/12/09 07:13:48;;;;;;;3.37;2.40;;;7.10;99.90;;;;;;4991435;28;20483;-75
2023/12/09 07:16:13;;;;;;;3.50;1.80;;;7.10;99.90;;;;;;4992944;28;20439;-75
2023/12/09 07:18:50;;;;;;;5.57;2.10;;;7.10;99.90;;;;;;4995103;28;20441;-74
2023/12/09 07:21:17;;;;;;;4.47;2.30;;;7.20;99.90;;;;;;4991381;28;20183;-74
2023/12/09 07:23:43;;;;;;;4.60;3.07;;;7.10;99.90;;;;;;4994610;28;20431;-74
2023/12/09 07:26:09;;;;;;;4.20;2.60;;;7.20;99.90;;;;;;4990539;28;20936;-74
2023/12/09 07:28:35;;;;;;;3.30;2.27;;;7.20;99.90;;;;;;4995023;28;20445;-73
2023/12/09 07:31:02;;;;;;;3.13;1.97;;;7.20;99.90;;;;;;4992186;28;20426;-74
2023/12/09 07:33:28;;;;;;;3.90;2.00;;;7.20;99.90;;;;;;4994541;28;20283;-74
2023/12/09 07:35:53;;;;;;;5.47;2.77;;;7.20;99.90;;;;;;4992507;28;21218;-75
2023/12/09 07:38:19;;;;;;;4.30;2.50;;;7.20;99.90;;;;;;4992567;28;20180;-74
2023/12/09 07:40:45;;;;;;;2.87;2.30;;;7.20;99.90;;;;;;4992909;28;20195;-74
2023/12/09 07:43:10;;;;;;;8.33;3.10;;;7.20;99.90;;;;;;4992243;28;20887;-74
2023/12/09 07:45:36;;;;;;;4.87;2.27;;;7.20;99.90;;;;;;4993909;28;20188;-75
2023/12/09 07:48:03;;;;;;;4.10;2.50;;;7.20;99.90;;;;;;4992442;28;20637;-74
2023/12/09 07:50:32;;;;;;;3.90;2.80;;;7.20;99.90;;;;;;4996047;28;20184;-75
2023/12/09 07:52:59;;;;;;;4.97;2.73;;;7.20;99.90;;;;;;4993641;28;20839;-74
2023/12/09 07:55:24;;;;;;;5.30;3.23;;;7.20;99.90;;;;;;4992027;28;20986;-75
2023/12/09 07:57:50;;;;;;;6.63;2.40;;;7.20;99.90;;;;;;4993624;28;20435;-74
2023/12/09 08:00:17;;;;;;;5.47;2.90;;;7.20;99.90;;;;;;4994648;28;20189;-74
2023/12/09 08:02:43;;;;;;;5.17;2.47;;;7.20;99.90;;;;;;4995704;28;20430;-74
2023/12/09 08:05:09;;;;;;;4.20;2.60;;;7.30;99.90;;;;;;4991622;28;20430;-74
2023/12/09 08:07:34;;;;;;;4.93;2.73;;;7.30;99.90;;;;;;4996189;28;20426;-74
2023/12/09 08:10:00;;;;;;;4.50;2.60;;;7.30;99.90;;;;;;4994127;28;20828;-74
2023/12/09 08:12:26;;;;;;;5.07;2.40;;;7.30;99.90;;;;;;4994682;28;20214;-74
2023/12/09 08:14:52;;;;;;;3.80;2.47;;;7.30;99.90;;;;;;4993883;28;20469;-74
2023/12/09 08:17:18;;;;;;;6.60;2.43;;;7.30;99.90;;;;;;4997013;28;20427;-74
2023/12/09 08:19:43;;;;;;;5.23;2.20;;;7.30;99.90;;;;;;4996481;28;20240;-74
2023/12/09 08:22:09;;;;;;;7.40;2.97;;;7.40;99.90;;;;;;4993902;28;20653;-75
2023/12/09 08:24:35;;;;;;;8.00;2.40;;;7.40;99.90;;;;;;4980292;28;20195;-75
2023/12/09 08:27:00;;;;;;;3.83;2.40;;;7.50;99.90;;;;;;4994048;28;20180;-74
2023/12/09 08:29:26;;;;;;;7.30;3.20;;;7.50;99.90;;;;;;4996466;28;20187;-74
2023/12/09 08:31:52;;;;;;;4.40;2.47;;;7.60;99.90;;;;;;4993080;28;20223;-74
2023/12/09 08:34:18;;;;;;;7.03;2.77;;;7.70;99.90;;;;;;4993123;28;20217;-74
2023/12/09 08:36:44;;;;;;;7.90;2.90;;;7.60;99.90;;;;;;4996425;28;20524;-74
2023/12/09 08:39:10;;;;;;;6.07;3.30;;;7.60;99.90;;;;;;4991557;28;20458;-74
2023/12/09 08:41:36;;;;;;;3.13;1.93;;;7.60;99.90;;;;;;4991138;28;20506;-74
2023/12/09 08:44:03;;;;;;;6.10;2.50;;;7.60;99.90;;;;;;4990224;28;20470;-75
2023/12/09 08:46:30;;;;;;;3.03;2.30;;;7.60;99.90;;;;;;4993838;28;20545;-74
2023/12/09 08:48:55;;;;;;;4.33;2.47;;;7.50;99.90;;;;;;4992371;28;20426;-75
2023/12/09 08:51:21;;;;;;;5.73;2.53;;;7.50;99.90;;;;;;4993782;28;20473;-74
2023/12/09 08:53:47;;;;;;;5.03;2.33;;;7.60;99.90;;;;;;4990864;28;20223;-75
2023/12/09 08:56:12;;;;;;;5.47;2.83;;;7.50;99.90;;;;;;4993049;28;20194;-74
2023/12/09 08:58:38;;;;;;;5.53;2.40;;;7.50;99.90;;;;;;4994810;28;20196;-73
2023/12/09 09:01:04;;;;;;;3.30;2.43;;;7.50;99.90;;;;;;4991252;28;20179;-72
2023/12/09 09:03:30;;;;;;;3.97;2.30;;;7.50;99.90;;;;;;4994147;28;20257;-73
2023/12/09 09:05:57;;;;;;;5.77;2.20;;;7.50;99.90;;;;;;4992317;28;20528;-73
2023/12/09 09:08:23;;;;;;;3.77;2.57;;;7.50;99.90;;;;;;4995194;28;20453;-73
2023/12/09 09:10:49;;;;;;;5.00;2.57;;;7.50;99.90;;;;;;4993725;28;20423;-73
2023/12/09 09:13:15;;;;;;;4.10;2.77;;;7.60;99.90;;;;;;4993836;28;20179;-72
2023/12/09 09:15:40;;;;;;;4.00;2.73;;;7.70;99.90;;;;;;4996328;28;20470;-73
2023/12/09 09:18:06;;;;;;;4.97;2.63;;;7.60;99.90;;;;;;4994087;28;20655;-72
2023/12/09 09:20:32;;;;;;;6.00;2.30;;;7.70;99.90;;;;;;5000737;28;20187;-73
2023/12/09 09:22:58;;;;;;;9.40;2.60;;;7.70;99.90;;;;;;4997148;28;20842;-73
2023/12/09 09:25:23;;;;;;;7.03;2.70;;;7.70;99.90;;;;;;4999870;28;20191;-73
2023/12/09 09:27:49;;;;;;;4.40;2.50;;;7.70;99.90;;;;;;4996459;28;20183;-73
2023/12/09 09:30:15;;;;;;;3.67;2.30;;;7.70;99.90;;;;;;4998161;28;20828;-73
2023/12/09 09:32:40;;;;;;;6.10;2.67;;;7.80;99.90;;;;;;5000023;28;20596;-73
2023/12/09 09:35:07;;;;;;;5.57;1.97;;;7.80;99.90;;;;;;4997899;28;20223;-73
2023/12/09 09:37:34;;;;;;;4.63;2.33;;;7.80;99.90;;;;;;5000349;28;20348;-73
2023/12/09 09:40:04;;;;;;;5.80;2.30;;;7.80;99.90;;;;;;4998116;28;20437;-73
2023/12/09 09:42:37;;;;;;;4.83;2.60;;;7.80;99.90;;;;;;4997713;28;20470;-73
2023/12/09 09:45:08;;;;;;;5.47;2.50;;;7.90;99.90;;;;;;4997051;28;20437;-72
2023/12/09 09:47:37;;;;;;;5.50;2.10;;;7.90;99.90;;;;;;4999831;28;20430;-73
2023/12/09 09:50:06;;;;;;;7.87;2.60;;;8.00;99.90;;;;;;4997723;28;20427;-73
2023/12/09 09:52:35;;;;;;;7.10;2.70;;;8.00;99.90;;;;;;5000093;28;20436;-73
2023/12/09 09:55:06;;;;;;;2.70;2.00;;;8.00;99.90;;;;;;4996984;28;20502;-73
2023/12/09 09:57:35;;;;;;;7.27;2.73;;;8.10;99.90;;;;;;4999990;28;20450;-73
2023/12/09 10:00:01;;;;;;;6.87;2.80;;;8.20;99.90;;;;;;4997682;28;21213;-73
2023/12/09 10:02:27;;;;;;;6.73;2.40;;;8.30;99.90;;;;;;5000858;28;20463;-73
2023/12/09 10:04:53;;;;;;;4.50;2.80;;;8.40;99.90;;;;;;4996366;28;20427;-73
2023/12/09 10:07:20;;;;;;;5.13;2.63;;;8.40;99.90;;;;;;4998592;28;20431;-73
2023/12/09 10:09:46;;;;;;;5.30;2.00;;;8.40;99.90;;;;;;4996833;28;20486;-73
2023/12/09 10:12:12;;;;;;;5.93;2.07;;;8.40;99.90;;;;;;4998087;28;20785;-74
2023/12/09 10:14:38;;;;;;;4.87;1.93;;;8.40;99.90;;;;;;5000370;28;20463;-73
2023/12/09 10:17:05;;;;;;;4.17;3.07;;;8.30;99.90;;;;;;4997421;28;20187;-73
2023/12/09 10:19:33;;;;;;;4.27;2.30;;;8.30;99.90;;;;;;4996997;28;20787;-73
2023/12/09 10:21:58;;;;;;;6.50;2.50;;;8.30;99.90;;;;;;4990021;28;20953;-74
2023/12/09 10:24:24;;;;;;;4.10;2.40;;;8.30;99.90;;;;;;4991496;28;20454;-73
2023/12/09 10:26:50;;;;;;;8.10;3.47;;;8.20;99.90;;;;;;4996409;28;20188;-73
2023/12/09 10:29:16;;;;;;;6.43;2.43;;;8.20;99.90;;;;;;4998288;28;20186;-72
2023/12/09 10:31:42;;;;;;;5.40;2.60;;;8.20;99.90;;;;;;4998760;28;20418;-73
2023/12/09 10:34:11;;;;;;;8.43;2.63;;;8.10;99.90;;;;;;4997268;28;20210;-73
2023/12/09 10:36:36;;;;;;;8.13;2.47;;;8.10;99.90;;;;;;4992532;28;20218;-73
2023/12/09 10:39:05;;;;;;;6.80;2.40;;;8.10;99.90;;;;;;4997243;28;20930;-73
2023/12/09 10:41:30;;;;;;;5.70;2.27;;;8.20;99.90;;;;;;4996883;28;20306;-73
2023/12/09 10:43:56;;;;;;;4.90;2.90;;;8.10;99.90;;;;;;4997473;28;20518;-73
2023/12/09 10:46:22;;;;;;;8.17;2.43;;;8.10;99.90;;;;;;4980075;28;20183;-73
2023/12/09 10:48:48;;;;;;;3.40;2.30;;;8.10;99.90;;;;;;4995639;28;20187;-73
2023/12/09 10:51:14;;;;;;;3.10;2.33;;;8.20;99.90;;;;;;4994164;28;20990;-73
2023/12/09 10:53:41;;;;;;;7.93;2.47;;;8.10;99.90;;;;;;4998756;28;20427;-73
2023/12/09 10:56:08;;;;;;;6.60;2.90;;;8.10;99.90;;;;;;4995412;28;20262;-73
2023/12/09 10:58:36;;;;;;;5.67;2.53;;;8.10;99.90;;;;;;4994787;28;20446;-73
2023/12/09 11:01:02;;;;;;;7.03;2.57;;;8.10;99.90;;;;;;4994022;28;20543;-73
2023/12/09 11:03:29;;;;;;;8.70;2.73;;;8.20;99.90;;;;;;4999711;28;20431;-73
2023/12/09 11:05:58;;;;;;;5.77;2.83;;;8.20;99.90;;;;;;4991453;28;20856;-73
2023/12/09 11:08:28;;;;;;;6.23;2.80;;;8.20;99.90;;;;;;4996980;28;20784;-74
2023/12/09 11:10:57;;;;;;;6.60;3.00;;;8.20;99.90;;;;;;4993338;28;20439;-74
2023/12/09 11:13:29;;;;;;;5.97;3.53;;;8.20;99.90;;;;;;4997611;28;20450;-73
2023/12/09 11:16:11;;;;;;;7.80;3.03;;;8.20;99.90;;;;;;4993568;28;20426;-74
2023/12/09 11:19:05;;;;;;;5.50;2.80;;;8.20;99.90;;;;;;4968564;28;20487;-72
2023/12/09 11:21:31;;;;;;;8.93;2.97;;;8.20;99.90;;;;;;5076164;28;20438;-73
2023/12/09 11:23:58;;;;;;;5.73;2.70;;;8.20;99.90;;;;;;4993326;28;20439;-73
2023/12/09 11:26:35;;;;;;;6.87;2.97;;;8.20;99.90;;;;;;5013561;28;20437;-73
2023/12/09 11:29:08;;;;;;;10.00;3.30;;;8.20;99.90;;;;;;4978694;28;20430;-73
2023/12/09 11:31:38;;;;;;;9.30;2.67;;;8.20;99.90;;;;;;4995327;28;20427;-72
2023/12/09 11:34:12;;;;;;;7.73;3.23;;;8.20;99.90;;;;;;5073672;28;21087;-73
2023/12/09 11:36:38;;;;;;;9.80;2.87;;;8.20;99.90;;;;;;4994378;28;20461;-73
2023/12/09 11:39:06;;;;;;;8.70;3.33;;;8.20;99.90;;;;;;4996424;28;20520;-73
2023/12/09 11:41:33;;;;;;;9.03;2.90;;;8.20;99.90;;;;;;4994550;28;20427;-73
2023/12/09 11:44:02;;;;;;;6.17;2.90;;;8.20;99.90;;;;;;4996475;28;20435;-73
2023/12/09 11:46:32;;;;;;;12.27;3.20;;;8.20;99.90;;;;;;4999437;28;20491;-73
2023/12/09 11:48:59;;;;;;;6.20;2.67;;;8.20;99.90;;;;;;4997486;28;20536;-73
2023/12/09 11:51:29;;;;;;;4.50;2.43;;;8.20;99.90;;;;;;4993071;28;20506;-72
2023/12/09 11:53:54;;;;;;;3.30;2.37;;;8.20;99.90;;;;;;4988767;28;20968;-73
2023/12/09 11:56:20;;;;;;;12.40;2.87;;;8.20;99.90;;;;;;4990372;28;20477;-73
2023/12/09 11:58:46;;;;;;;5.80;2.10;;;8.20;99.90;;;;;;4989005;28;20183;-73
2023/12/09 12:01:11;;;;;;;7.93;2.90;;;8.20;99.90;;;;;;4990558;28;20629;-73
2023/12/09 12:03:37;;;;;;;8.27;2.83;;;8.20;99.90;;;;;;4989677;28;20198;-73
2023/12/09 12:06:04;;;;;;;11.50;2.67;;;8.20;99.90;;;;;;4990362;28;20191;-73
2023/12/09 12:08:29;;;;;;;4.00;2.20;;;8.20;99.90;;;;;;4989153;28;20188;-73
2023/12/09 12:10:55;;;;;;;9.70;3.20;;;8.20;99.90;;;;;;4989693;28;20431;-73
2023/12/09 12:13:21;;;;;;;5.83;2.33;;;8.20;99.90;;;;;;4990515;28;20184;-73
2023/12/09 12:15:48;;;;;;;5.97;2.53;;;8.20;99.90;;;;;;4989439;28;20475;-73
2023/12/09 12:18:14;;;;;;;4.47;2.17;;;8.20;99.90;;;;;;4990580;28;20868;-72
2023/12/09 12:20:39;;;;;;;6.07;2.83;;;8.20;99.90;;;;;;4986893;28;20430;-73
2023/12/09 12:23:05;;;;;;;9.40;3.73;;;8.20;99.90;;;;;;4987081;28;20495;-73
2023/12/09 12:25:31;;;;;;;10.00;2.60;;;8.20;99.90;;;;;;4987000;28;20921;-73
2023/12/09 12:27:57;;;;;;;6.70;2.50;;;8.30;99.90;;;;;;4987189;28;20219;-73
2023/12/09 12:30:23;;;;;;;5.50;2.60;;;8.20;99.90;;;;;;4987175;28;20188;-72
2023/12/09 12:32:56;;;;;;;6.30;2.30;;;8.20;99.90;;;;;;4986509;28;20450;-73
2023/12/09 12:35:23;;;;;;;7.13;2.30;;;8.20;99.90;;;;;;4989617;28;20562;-73
2023/12/09 12:37:49;;;;;;;4.43;2.57;;;8.30;99.90;;;;;;4987678;28;20439;-73
2023/12/09 12:40:15;;;;;;;6.47;2.50;;;8.30;99.90;;;;;;4991368;28;20425;-72
2023/12/09 12:42:42;;;;;;;6.60;2.83;;;8.30;99.90;;;;;;4990765;28;20442;-73
2023/12/09 12:45:22;;;;;;;10.43;3.17;;;8.30;99.90;;;;;;4968344;28;20438;-73
2023/12/09 12:47:48;;;;;;;9.23;2.87;;;8.20;99.90;;;;;;4987767;28;20429;-73
2023/12/09 12:50:16;;;;;;;6.27;2.60;;;8.30;99.90;;;;;;4989100;28;20439;-73
2023/12/09 12:52:42;;;;;;;8.47;2.60;;;8.30;99.90;;;;;;4990519;28;20446;-73